Time;durP1;ratioP1;P1;durP2;ratioP2;P2;SDS_P1;SDS_P2;PMS_P1;PMS_P2;Temp;Humidity;BMP_temperature;BMP_pressure;BME280_temperature;BME280_humidity;BME280_pressure;Samples;Min_cycle;Max_cycle;Signal;HPM_P1;HPM_P2
2021/04/13 00:02:16;;;;;;;6.10;1.00;;;2.80;92.40;;;;;;5057625;28;20048;-75
2021/04/13 00:04:42;;;;;;;10.90;1.33;;;2.70;92.50;;;;;;5047431;28;20067;-75
2021/04/13 00:07:09;;;;;;;7.90;1.10;;;2.70;91.80;;;;;;5041659;28;20037;-75
2021/04/13 00:09:35;;;;;;;6.75;1.40;;;2.70;92.40;;;;;;5046071;28;20040;-75
2021/04/13 00:12:09;;;;;;;3.88;1.38;;;2.60;92.30;;;;;;5045845;28;20040;-75
2021/04/13 00:14:39;;;;;;;6.50;1.50;;;2.60;92.50;;;;;;5046696;28;20063;-75
2021/04/13 00:17:17;;;;;;;6.07;1.52;;;2.60;92.50;;;;;;5048534;28;20550;-75
2021/04/13 00:19:52;;;;;;;5.75;1.20;;;2.60;92.50;;;;;;5049547;28;20037;-75
2021/04/13 00:22:19;;;;;;;8.27;1.73;;;2.50;92.30;;;;;;5044370;28;20656;-75
2021/04/13 00:24:44;;;;;;;8.07;1.25;;;2.60;92.70;;;;;;5035813;28;20033;-75
2021/04/13 00:27:15;;;;;;;9.52;1.17;;;2.60;92.80;;;;;;5029421;28;20135;-75
2021/04/13 00:29:41;;;;;;;9.35;1.23;;;2.60;93.10;;;;;;5045767;28;20037;-75
2021/04/13 00:32:07;;;;;;;3.47;1.05;;;2.50;92.30;;;;;;5027912;28;20067;-75
2021/04/13 00:34:45;;;;;;;6.32;1.23;;;2.50;92.70;;;;;;5048015;28;20044;-75
2021/04/13 00:37:27;;;;;;;6.22;1.52;;;2.50;93.00;;;;;;5040389;28;20383;-75
2021/04/13 00:40:16;;;;;;;5.90;1.17;;;2.50;92.70;;;;;;5026120;28;20158;-75
2021/04/13 00:42:42;;;;;;;10.50;1.83;;;2.50;92.90;;;;;;5036666;28;20049;-75
2021/04/13 00:45:15;;;;;;;5.90;1.10;;;2.50;93.00;;;;;;5043419;28;20170;-75
2021/04/13 00:47:43;;;;;;;4.50;1.10;;;2.50;93.00;;;;;;5047655;28;20033;-75
2021/04/13 00:50:24;;;;;;;7.28;1.08;;;2.50;93.10;;;;;;5045390;28;20033;-75
2021/04/13 00:52:53;;;;;;;6.18;1.40;;;2.40;92.70;;;;;;5026286;28;20041;-75
2021/04/13 00:55:22;;;;;;;5.68;1.35;;;2.50;93.40;;;;;;5051719;28;20106;-75
2021/04/13 00:58:11;;;;;;;5.90;0.95;;;2.50;93.30;;;;;;5055633;28;20036;-75
2021/04/13 01:00:41;;;;;;;9.60;1.40;;;2.50;93.00;;;;;;5047775;28;20048;-75
2021/04/13 01:03:07;;;;;;;7.03;1.10;;;2.60;93.20;;;;;;5054334;28;20251;-75
2021/04/13 01:05:42;;;;;;;10.02;1.83;;;2.60;93.60;;;;;;5029875;28;20060;-75
2021/04/13 01:08:35;;;;;;;7.22;1.20;;;2.70;92.50;;;;;;5028524;28;20037;-75
2021/04/13 01:11:25;;;;;;;5.00;1.45;;;2.80;93.10;;;;;;5048908;28;20146;-76
2021/04/13 01:13:54;;;;;;;5.35;1.30;;;2.90;92.90;;;;;;5062404;28;20091;-75
2021/04/13 01:16:43;;;;;;;9.35;1.60;;;2.90;92.80;;;;;;5041215;28;20044;-75
2021/04/13 01:19:30;;;;;;;6.35;1.17;;;2.90;92.70;;;;;;5028270;28;20087;-75
2021/04/13 01:22:15;;;;;;;8.80;1.45;;;2.90;92.60;;;;;;5055675;28;20066;-75
2021/04/13 01:24:50;;;;;;;8.20;1.40;;;2.80;92.50;;;;;;5050007;28;20040;-76
2021/04/13 01:27:17;;;;;;;4.53;1.20;;;2.80;92.90;;;;;;5049377;28;20083;-75
2021/04/13 01:29:44;;;;;;;7.05;1.90;;;2.70;92.70;;;;;;5048532;28;20040;-75
2021/04/13 01:32:10;;;;;;;6.10;1.30;;;2.70;92.60;;;;;;5045083;28;20043;-75
2021/04/13 01:34:48;;;;;;;9.23;1.38;;;2.70;93.00;;;;;;5035311;28;20107;-75
2021/04/13 01:37:42;;;;;;;8.88;1.50;;;2.60;92.90;;;;;;5061427;28;20064;-75
2021/04/13 01:42:39;;;;;;;8.13;1.40;;;2.60;92.80;;;;;;5054108;28;20166;-75
2021/04/13 01:45:08;;;;;;;7.40;1.52;;;2.60;93.20;;;;;;5038832;28;20033;-75
2021/04/13 01:47:35;;;;;;;7.25;1.67;;;2.50;93.10;;;;;;5053131;28;20450;-75
2021/04/13 01:50:07;;;;;;;6.93;1.30;;;2.60;93.30;;;;;;5048501;28;20045;-75
2021/04/13 01:52:37;;;;;;;3.83;1.35;;;2.50;93.30;;;;;;5060914;28;20455;-75
2021/04/13 01:55:11;;;;;;;4.05;1.45;;;2.50;93.30;;;;;;5050986;28;20478;-75
2021/04/13 01:57:50;;;;;;;6.10;1.10;;;2.50;93.40;;;;;;5053693;28;20037;-75
2021/04/13 02:00:39;;;;;;;5.75;1.17;;;2.40;93.10;;;;;;5050919;28;20129;-75
2021/04/13 02:03:16;;;;;;;9.07;1.48;;;2.40;93.20;;;;;;5051192;28;20041;-75
2021/04/13 02:05:46;;;;;;;5.00;1.50;;;2.40;93.10;;;;;;5066469;28;20036;-75
2021/04/13 02:08:24;;;;;;;9.32;2.15;;;2.40;92.90;;;;;;5063736;28;20031;-75
2021/04/13 02:11:11;;;;;;;7.10;1.45;;;2.30;93.10;;;;;;5079738;22;20427;-71
2021/04/13 02:13:56;;;;;;;11.45;1.52;;;2.30;93.30;;;;;;5085404;28;20032;-71
2021/04/13 02:16:39;;;;;;;7.85;1.58;;;2.30;93.40;;;;;;5090795;28;20027;-70
2021/04/13 02:19:07;;;;;;;;;;;2.20;93.20;;;;;;5086818;28;20040;-70
2021/04/13 02:21:51;;;;;;;7.13;1.58;;;2.10;92.90;;;;;;5088247;28;19927;-70
2021/04/13 02:24:19;;;;;;;7.22;1.88;;;2.10;93.20;;;;;;5089391;28;20492;-69
2021/04/13 02:26:56;;;;;;;5.18;1.33;;;2.10;93.30;;;;;;5089979;28;20264;-69
2021/04/13 02:29:29;;;;;;;7.28;1.30;;;2.00;93.20;;;;;;5093124;28;20035;-70
2021/04/13 02:32:00;;;;;;;6.55;1.60;;;2.00;93.30;;;;;;5077218;28;22178;-69
2021/04/13 02:34:29;;;;;;;8.55;1.17;;;2.00;93.20;;;;;;5080616;28;20507;-69
2021/04/13 02:37:06;;;;;;;3.42;1.17;;;1.90;93.10;;;;;;5071090;28;20046;-69
2021/04/13 02:39:33;;;;;;;6.70;1.50;;;1.90;92.90;;;;;;5085498;28;20126;-70
2021/04/13 02:42:05;;;;;;;6.00;1.40;;;1.80;92.80;;;;;;5087741;28;20123;-70
2021/04/13 02:44:31;;;;;;;8.63;1.50;;;1.80;93.00;;;;;;5089097;28;20039;-70
2021/04/13 02:47:01;;;;;;;8.88;1.48;;;1.70;93.20;;;;;;5089078;28;20047;-70
2021/04/13 02:49:28;;;;;;;5.82;1.10;;;1.70;93.30;;;;;;5076831;28;20473;-70
2021/04/13 02:52:01;;;;;;;10.25;1.63;;;1.70;93.20;;;;;;5088126;28;20036;-69
2021/04/13 02:54:40;;;;;;;5.10;1.90;;;1.70;93.30;;;;;;5088449;28;20114;-70
2021/04/13 02:57:13;;;;;;;6.85;1.65;;;1.70;93.50;;;;;;5060227;28;20466;-70
2021/04/13 02:59:39;;;;;;;7.25;1.30;;;1.70;93.50;;;;;;5070964;28;20477;-70
2021/04/13 03:02:29;;;;;;;9.00;1.67;;;1.70;93.60;;;;;;5086144;28;20094;-70
2021/04/13 03:04:56;;;;;;;8.85;1.90;;;1.70;93.50;;;;;;5089638;28;20387;-70
2021/04/13 03:07:25;;;;;;;12.45;1.70;;;1.70;93.30;;;;;;5089212;28;20128;-70
2021/04/13 03:09:54;;;;;;;7.20;1.80;;;1.70;93.50;;;;;;5083557;28;20064;-70
2021/04/13 03:12:20;;;;;;;10.98;2.03;;;1.70;93.80;;;;;;5075043;28;20048;-70
2021/04/13 03:14:54;;;;;;;6.78;1.40;;;1.70;94.00;;;;;;5086237;28;20036;-70
2021/04/13 03:17:24;;;;;;;7.85;1.60;;;1.70;93.90;;;;;;5088755;28;20044;-70
2021/04/13 03:19:57;;;;;;;9.07;1.60;;;1.70;93.70;;;;;;5086868;28;20119;-70
2021/04/13 03:22:24;;;;;;;8.20;1.92;;;1.60;93.60;;;;;;5070063;28;20035;-70
2021/04/13 03:24:51;;;;;;;6.93;1.50;;;1.70;93.90;;;;;;5082827;28;20072;-70
2021/04/13 03:27:20;;;;;;;10.35;2.10;;;1.70;93.80;;;;;;5083238;28;20556;-70
2021/04/13 03:30:13;;;;;;;7.53;1.30;;;1.70;93.90;;;;;;5087411;28;20039;-70
2021/04/13 03:32:49;;;;;;;9.07;1.70;;;1.70;94.00;;;;;;5078849;28;20489;-70
2021/04/13 03:35:15;;;;;;;9.32;1.65;;;1.70;94.00;;;;;;5101367;28;20032;-70
2021/04/13 03:37:43;;;;;;;7.60;2.08;;;1.70;94.00;;;;;;5090371;28;20058;-69
2021/04/13 03:40:14;;;;;;;7.78;1.50;;;1.70;93.80;;;;;;5073902;28;20024;-69
2021/04/13 03:42:40;;;;;;;5.37;1.50;;;1.70;94.00;;;;;;5065879;28;20389;-69
2021/04/13 03:45:09;;;;;;;6.43;1.85;;;1.70;94.00;;;;;;5088466;28;20032;-69
2021/04/13 03:47:37;;;;;;;11.38;1.92;;;1.70;94.00;;;;;;5082729;28;20473;-69
2021/04/13 03:50:16;;;;;;;10.70;1.92;;;1.80;94.10;;;;;;5069501;28;20079;-70
2021/04/13 03:52:42;;;;;;;6.35;1.77;;;1.80;94.40;;;;;;5085649;28;20080;-70
2021/04/13 03:55:15;;;;;;;13.43;1.85;;;1.90;94.40;;;;;;5086609;28;20159;-70
2021/04/13 03:57:42;;;;;;;12.88;2.00;;;2.00;94.50;;;;;;5089679;28;20028;-70
2021/04/13 04:00:13;;;;;;;9.05;1.58;;;2.00;93.90;;;;;;5086433;28;20036;-70
2021/04/13 04:02:39;;;;;;;8.13;1.30;;;2.10;94.10;;;;;;5070705;28;20456;-69
2021/04/13 04:05:14;;;;;;;6.72;1.40;;;2.20;94.80;;;;;;5088249;28;20101;-69
2021/04/13 04:07:46;;;;;;;10.88;2.13;;;2.40;94.60;;;;;;5088251;28;20040;-69
2021/04/13 04:10:35;;;;;;;8.88;1.85;;;2.40;93.50;;;;;;5088936;28;20509;-69
2021/04/13 04:13:06;;;;;;;6.93;2.00;;;2.40;93.90;;;;;;5088255;28;20055;-69
2021/04/13 04:15:41;;;;;;;8.40;1.65;;;2.30;93.30;;;;;;5087200;28;20534;-70
2021/04/13 04:19:02;;;;;;;15.30;2.25;;;2.20;93.40;;;;;;5087936;28;20047;-69
2021/04/13 04:21:32;;;;;;;6.35;1.65;;;2.20;93.40;;;;;;4991549;28;20088;-69
2021/04/13 04:24:03;;;;;;;9.25;1.83;;;2.20;93.40;;;;;;5064559;28;20147;-69
2021/04/13 04:26:32;;;;;;;9.10;1.58;;;2.10;93.50;;;;;;5089824;28;20356;-70
2021/04/13 04:29:16;;;;;;;8.55;1.40;;;2.10;93.60;;;;;;5089538;28;20051;-70
2021/04/13 04:31:44;;;;;;;10.90;1.55;;;2.10;93.60;;;;;;5089146;28;20040;-70
2021/04/13 04:34:15;;;;;;;8.10;1.60;;;2.20;93.70;;;;;;5076445;28;20114;-70
2021/04/13 04:36:52;;;;;;;7.13;1.35;;;2.20;93.60;;;;;;5084500;28;20039;-70
2021/04/13 04:39:36;;;;;;;10.23;1.50;;;2.20;93.60;;;;;;5081606;28;20028;-70
2021/04/13 04:42:28;;;;;;;9.73;1.60;;;2.20;93.90;;;;;;5087037;28;20051;-69
2021/04/13 04:45:32;;;;;;;9.70;2.25;;;2.20;93.70;;;;;;5069631;28;20276;-70
2021/04/13 04:47:59;;;;;;;11.80;1.98;;;2.10;93.50;;;;;;5080755;28;20032;-69
2021/04/13 04:50:24;;;;;;;11.18;2.00;;;2.20;93.70;;;;;;5086052;28;20039;-70
2021/04/13 04:52:50;;;;;;;10.93;1.73;;;2.10;93.30;;;;;;5092841;28;20396;-71
2021/04/13 04:55:16;;;;;;;7.15;1.80;;;2.10;93.40;;;;;;5085910;28;20028;-70
2021/04/13 04:57:42;;;;;;;13.85;1.80;;;2.00;93.40;;;;;;5086602;28;20059;-71
2021/04/13 05:00:09;;;;;;;10.85;2.40;;;2.00;93.40;;;;;;5084268;28;20130;-70
2021/04/13 05:02:35;;;;;;;11.10;2.15;;;2.00;93.40;;;;;;5086189;28;20115;-70
2021/04/13 05:05:02;;;;;;;7.30;1.95;;;2.10;93.50;;;;;;5082773;28;20035;-70
2021/04/13 05:07:28;;;;;;;7.68;2.13;;;2.10;93.50;;;;;;5087351;28;20035;-70
2021/04/13 05:09:53;;;;;;;12.13;2.10;;;2.10;93.40;;;;;;5054391;28;20086;-69
2021/04/13 05:12:19;;;;;;;8.25;1.80;;;2.10;93.20;;;;;;5086650;28;20063;-70
2021/04/13 05:14:44;;;;;;;10.75;2.15;;;2.10;93.60;;;;;;5064247;28;20543;-70
2021/04/13 05:17:10;;;;;;;9.70;2.42;;;2.20;93.60;;;;;;5077909;28;20032;-70
2021/04/13 05:19:36;;;;;;;10.80;1.90;;;2.20;93.30;;;;;;5077968;28;20289;-70
2021/04/13 05:22:02;;;;;;;9.43;1.85;;;2.20;93.40;;;;;;5078195;28;20097;-70
2021/04/13 05:24:27;;;;;;;13.80;2.50;;;2.30;93.50;;;;;;5061716;28;20052;-70
2021/04/13 05:26:53;;;;;;;10.88;2.22;;;2.30;93.10;;;;;;5080448;28;20482;-70
2021/04/13 05:29:19;;;;;;;6.03;1.67;;;2.40;93.40;;;;;;5077933;28;20249;-70
2021/04/13 05:31:44;;;;;;;8.30;2.42;;;2.40;93.10;;;;;;5075621;28;20047;-70
2021/04/13 05:34:11;;;;;;;9.20;1.77;;;2.50;93.20;;;;;;5081119;28;20153;-70
2021/04/13 05:36:42;;;;;;;13.85;2.33;;;2.60;93.30;;;;;;5086014;28;20107;-70
2021/04/13 05:39:09;;;;;;;8.80;2.03;;;2.60;93.10;;;;;;5083757;28;20123;-69
2021/04/13 05:41:35;;;;;;;11.40;2.40;;;2.70;93.30;;;;;;5058761;28;20063;-70
2021/04/13 05:44:05;;;;;;;12.63;3.00;;;2.90;93.50;;;;;;5077063;28;20067;-70
2021/04/13 05:46:32;;;;;;;12.25;2.80;;;3.70;92.80;;;;;;5056369;28;20063;-70
2021/04/13 05:48:59;;;;;;;11.57;1.77;;;4.80;90.70;;;;;;5085611;28;20028;-70
2021/04/13 05:51:26;;;;;;;12.88;1.95;;;6.00;90.60;;;;;;5072558;28;20055;-70
2021/04/13 05:53:51;;;;;;;7.53;1.83;;;7.00;86.80;;;;;;5083061;28;20039;-70
2021/04/13 05:56:22;;;;;;;7.70;1.50;;;7.80;82.20;;;;;;5080963;28;20089;-70
2021/04/13 05:58:49;;;;;;;10.68;1.95;;;8.60;76.30;;;;;;5083060;28;20036;-71
2021/04/13 06:01:19;;;;;;;10.52;2.03;;;9.40;78.40;;;;;;5081019;28;20039;-71
2021/04/13 06:03:45;;;;;;;14.95;1.70;;;10.00;74.60;;;;;;5081850;28;20036;-71
2021/04/13 06:06:12;;;;;;;11.70;1.60;;;10.40;65.40;;;;;;5082765;28;20032;-71
2021/04/13 06:08:38;;;;;;;7.70;1.63;;;11.00;66.10;;;;;;5082465;28;20036;-71
2021/04/13 06:11:04;;;;;;;5.85;1.90;;;11.50;70.00;;;;;;5080025;28;20044;-71
2021/04/13 06:13:30;;;;;;;10.60;2.00;;;12.00;67.20;;;;;;5066656;28;20040;-71
2021/04/13 06:15:56;;;;;;;8.48;1.52;;;12.50;60.60;;;;;;5064940;28;20479;-72
2021/04/13 06:18:23;;;;;;;8.57;1.98;;;13.00;64.00;;;;;;5083342;28;20028;-71
2021/04/13 06:20:48;;;;;;;9.35;1.50;;;13.30;61.80;;;;;;5080678;28;20036;-71
2021/04/13 06:23:15;;;;;;;7.82;2.00;;;13.80;61.20;;;;;;5077745;28;20074;-71
2021/04/13 06:25:41;;;;;;;6.90;1.70;;;14.00;57.10;;;;;;5077385;28;20604;-71
2021/04/13 06:28:06;;;;;;;6.70;1.83;;;14.50;54.10;;;;;;5081733;28;20111;-75
2021/04/13 06:30:32;;;;;;;7.50;1.77;;;14.60;52.30;;;;;;5078463;28;20047;-71
2021/04/13 06:32:58;;;;;;;7.05;1.60;;;14.80;55.60;;;;;;5080056;28;20485;-71
2021/04/13 06:35:25;;;;;;;7.57;1.70;;;14.90;55.20;;;;;;5074719;28;20047;-71
2021/04/13 06:37:54;;;;;;;8.50;1.67;;;15.00;49.90;;;;;;5081170;28;20059;-70
2021/04/13 06:40:49;;;;;;;6.63;2.08;;;15.30;52.40;;;;;;5081662;28;20036;-70
2021/04/13 06:43:37;;;;;;;9.45;1.90;;;15.40;51.10;;;;;;5080648;28;20762;-70
2021/04/13 06:46:10;;;;;;;9.43;1.92;;;15.40;47.70;;;;;;5077980;28;20067;-70
2021/04/13 06:48:57;;;;;;;9.55;1.88;;;15.90;53.30;;;;;;5082208;28;20411;-70
2021/04/13 06:51:37;;;;;;;5.88;1.50;;;15.50;48.90;;;;;;5080806;28;20040;-70
2021/04/13 06:54:24;;;;;;;7.80;1.65;;;15.50;50.90;;;;;;5076505;28;20036;-70
2021/04/13 06:57:04;;;;;;;6.07;1.83;;;15.90;45.70;;;;;;5063826;28;20087;-70
2021/04/13 07:00:14;;;;;;;9.25;2.00;;;16.20;49.80;;;;;;5078730;28;20036;-70
2021/04/13 07:02:47;;;;;;;7.85;2.10;;;16.50;49.10;;;;;;5064317;28;20056;-70
2021/04/13 07:05:15;;;;;;;8.48;1.92;;;16.70;50.80;;;;;;5089644;28;20082;-70
2021/04/13 07:07:59;;;;;;;4.10;1.50;;;16.80;49.10;;;;;;5069924;28;20039;-70
2021/04/13 07:10:29;;;;;;;6.22;1.65;;;16.60;45.00;;;;;;5087121;28;20129;-70
2021/04/13 07:13:06;;;;;;;9.20;1.98;;;16.80;47.40;;;;;;5086399;28;20032;-70
2021/04/13 07:15:37;;;;;;;6.65;1.67;;;17.00;46.10;;;;;;5075929;28;20547;-70
2021/04/13 07:18:25;;;;;;;7.07;1.50;;;16.90;43.90;;;;;;5071682;28;20051;-70
2021/04/13 07:21:01;;;;;;;4.55;1.10;;;16.90;46.60;;;;;;5077562;28;20043;-71
2021/04/13 07:23:43;;;;;;;6.45;1.60;;;16.50;44.10;;;;;;5072957;28;20044;-70
2021/04/13 07:26:23;;;;;;;6.72;1.90;;;15.90;44.30;;;;;;5086628;28;20032;-70
2021/04/13 07:28:59;;;;;;;6.90;1.55;;;14.20;44.80;;;;;;5088726;28;20032;-69
2021/04/13 07:31:49;;;;;;;6.00;1.35;;;14.70;48.60;;;;;;5088742;28;20115;-69
2021/04/13 07:34:14;;;;;;;6.88;1.30;;;15.30;47.50;;;;;;5048951;28;20112;-69
2021/04/13 07:36:46;;;;;;;6.80;1.70;;;15.30;48.30;;;;;;5065928;28;20040;-69
2021/04/13 07:39:12;;;;;;;;;;;15.50;43.80;;;;;;5072454;28;20416;-69
2021/04/13 07:41:44;;;;;;;6.28;1.55;;;14.00;45.90;;;;;;5069352;28;19924;-69
2021/04/13 07:44:21;;;;;;;4.78;1.30;;;14.50;50.10;;;;;;5082003;28;20048;-69
2021/04/13 07:47:14;;;;;;;9.07;1.83;;;14.30;49.10;;;;;;5089979;28;20040;-69
2021/04/13 07:49:49;;;;;;;5.43;1.50;;;13.50;51.10;;;;;;5070729;28;20116;-69
2021/04/13 07:52:21;;;;;;;7.82;1.35;;;11.90;51.40;;;;;;5082562;28;20348;-68
2021/04/13 07:54:54;;;;;;;8.68;1.50;;;11.40;56.20;;;;;;5091713;28;20055;-68
2021/04/13 07:57:37;;;;;;;7.68;1.50;;;10.60;57.80;;;;;;5083704;28;20324;-68
2021/04/13 08:00:03;;;;;;;6.93;1.20;;;10.60;59.40;;;;;;5089211;28;20059;-68
2021/04/13 08:02:29;;;;;;;6.75;1.50;;;10.40;60.30;;;;;;5071319;28;20478;-68
2021/04/13 08:04:57;;;;;;;5.10;1.05;;;10.30;60.00;;;;;;5088030;28;20044;-68
2021/04/13 08:07:25;;;;;;;10.43;1.67;;;10.20;61.70;;;;;;5088560;28;20139;-68
2021/04/13 08:09:54;;;;;;;4.55;1.13;;;10.00;62.00;;;;;;5081289;28;20046;-68
2021/04/13 08:12:52;;;;;;;7.65;1.08;;;9.90;60.10;;;;;;5064337;28;20605;-69
2021/04/13 08:15:20;;;;;;;6.22;1.42;;;10.00;61.10;;;;;;5079468;28;20067;-68
2021/04/13 08:18:03;;;;;;;6.25;1.25;;;9.70;59.30;;;;;;5086952;28;20447;-68
2021/04/13 08:20:35;;;;;;;4.75;1.08;;;9.40;62.30;;;;;;5074897;28;20063;-69
2021/04/13 08:23:06;;;;;;;5.70;0.90;;;9.90;61.70;;;;;;5081959;28;20084;-69
2021/04/13 08:25:37;;;;;;;5.13;0.88;;;9.70;62.00;;;;;;5077013;28;20120;-69
2021/04/13 08:28:11;;;;;;;5.50;1.10;;;9.60;60.50;;;;;;5062403;28;20063;-69
2021/04/13 08:34:38;;;;;;;6.95;1.27;;;9.20;59.80;;;;;;5046535;28;20485;-69
2021/04/13 08:37:10;;;;;;;5.50;1.00;;;9.20;62.10;;;;;;5076890;28;20045;-69
2021/04/13 08:39:49;;;;;;;5.82;0.80;;;9.30;60.70;;;;;;5067372;28;20032;-69
2021/04/13 08:42:30;;;;;;;1.92;0.68;;;9.20;60.70;;;;;;5083680;28;20118;-69
2021/04/13 08:45:15;;;;;;;7.18;1.10;;;9.20;59.20;;;;;;5083712;28;20115;-70
2021/04/13 08:47:47;;;;;;;6.43;0.90;;;8.90;59.80;;;;;;5084670;28;20036;-70
2021/04/13 08:50:40;;;;;;;4.78;1.55;;;8.80;61.40;;;;;;5063191;28;20036;-70
2021/04/13 08:53:27;;;;;;;7.18;1.60;;;9.00;59.70;;;;;;5061377;28;20056;-69
2021/04/13 08:56:09;;;;;;;6.05;1.30;;;9.00;60.90;;;;;;5082721;28;20124;-69
2021/04/13 08:58:48;;;;;;;6.07;0.80;;;9.00;63.30;;;;;;5087427;28;20203;-69
2021/04/13 09:01:42;;;;;;;5.70;0.85;;;9.00;62.20;;;;;;5066429;28;20043;-69
2021/04/13 09:04:28;;;;;;;6.25;1.23;;;9.30;61.60;;;;;;5080273;28;20429;-70
2021/04/13 09:07:01;;;;;;;5.53;0.93;;;9.60;61.60;;;;;;5084431;28;20478;-69
2021/04/13 09:09:32;;;;;;;5.05;0.95;;;9.80;56.20;;;;;;5067646;28;20035;-69
2021/04/13 09:12:07;;;;;;;4.45;1.20;;;9.70;58.80;;;;;;5086918;28;20227;-69
2021/04/13 09:14:40;;;;;;;10.40;1.35;;;9.70;58.10;;;;;;5081494;28;20039;-69
2021/04/13 09:17:20;;;;;;;7.20;1.60;;;9.40;60.60;;;;;;5086018;28;20039;-69
2021/04/13 09:20:09;;;;;;;4.72;1.25;;;8.50;61.70;;;;;;5082903;28;20481;-69
2021/04/13 09:22:48;;;;;;;5.90;1.35;;;8.50;63.50;;;;;;5081376;28;20036;-70
2021/04/13 09:25:34;;;;;;;8.23;1.10;;;8.20;65.70;;;;;;5075179;28;20444;-70
2021/04/13 09:28:11;;;;;;;7.75;1.63;;;8.30;65.60;;;;;;5082930;28;20028;-69
2021/04/13 09:30:44;;;;;;;6.70;1.20;;;8.20;63.60;;;;;;5077620;28;20028;-69
2021/04/13 09:33:14;;;;;;;6.22;0.90;;;8.30;62.40;;;;;;5078700;28;20172;-69
2021/04/13 09:35:40;;;;;;;6.03;1.02;;;8.50;62.60;;;;;;5077982;28;20040;-69
2021/04/13 09:38:29;;;;;;;6.32;0.90;;;8.60;64.20;;;;;;5086105;28;20243;-69
2021/04/13 09:41:23;;;;;;;5.95;0.90;;;8.70;63.00;;;;;;5082292;28;20040;-70
2021/04/13 09:43:58;;;;;;;4.85;1.00;;;8.80;63.80;;;;;;5087831;28;20036;-70
2021/04/13 09:46:50;;;;;;;4.35;0.82;;;8.80;63.80;;;;;;5063985;28;20371;-70
2021/04/13 09:49:46;;;;;;;5.00;1.00;;;8.90;62.50;;;;;;5076552;28;20036;-70
2021/04/13 09:52:23;;;;;;;8.27;1.42;;;8.90;66.10;;;;;;5083302;28;20031;-70
2021/04/13 09:55:17;;;;;;;3.30;0.77;;;9.30;63.60;;;;;;5084991;28;20032;-70
2021/04/13 09:58:20;;;;;;;5.20;1.10;;;9.60;63.90;;;;;;5064686;28;20575;-70
2021/04/13 10:01:06;;;;;;;3.45;0.80;;;9.60;63.30;;;;;;5080399;28;20035;-70
2021/04/13 10:04:09;;;;;;;4.88;0.90;;;9.70;62.20;;;;;;5055934;28;20032;-69
2021/04/13 10:06:39;;;;;;;5.03;1.15;;;9.20;65.10;;;;;;5074921;28;20068;-69
2021/04/13 10:09:13;;;;;;;5.70;1.17;;;8.90;66.10;;;;;;5075348;28;20547;-70
2021/04/13 10:11:57;;;;;;;5.50;1.00;;;8.80;68.30;;;;;;5061576;28;20055;-70
2021/04/13 10:14:31;;;;;;;5.68;1.17;;;8.40;66.90;;;;;;5091939;28;20036;-69
2021/04/13 10:17:12;;;;;;;6.70;1.00;;;8.60;68.50;;;;;;5057931;28;20428;-68
2021/04/13 10:20:08;;;;;;;4.88;1.13;;;8.80;64.40;;;;;;5086523;28;20039;-68
2021/04/13 10:22:41;;;;;;;4.10;0.90;;;9.20;57.30;;;;;;5083703;28;20398;-69
2021/04/13 10:25:25;;;;;;;2.28;0.77;;;9.50;58.50;;;;;;5090343;28;20036;-69
2021/04/13 10:28:29;;;;;;;3.72;0.80;;;10.00;53.20;;;;;;5090039;28;20040;-69
2021/04/13 10:31:13;;;;;;;2.08;0.80;;;10.10;53.20;;;;;;5086262;28;20349;-69
2021/04/13 10:34:12;;;;;;;3.10;1.10;;;10.50;57.10;;;;;;5070504;28;20032;-68
2021/04/13 10:36:46;;;;;;;4.32;0.70;;;10.10;52.20;;;;;;5083729;28;20364;-69
2021/04/13 10:39:12;;;;;;;5.20;0.80;;;10.20;57.40;;;;;;5091602;28;20473;-68
2021/04/13 10:42:14;;;;;;;3.25;0.88;;;10.50;54.90;;;;;;5085636;28;20066;-68
2021/04/13 10:44:55;;;;;;;4.37;0.90;;;10.50;54.80;;;;;;5070178;28;20040;-69
2021/04/13 10:47:26;;;;;;;4.68;1.05;;;10.50;55.80;;;;;;5088450;28;20286;-69
2021/04/13 10:50:16;;;;;;;4.97;1.13;;;10.80;55.60;;;;;;5090455;28;20040;-69
2021/04/13 10:52:55;;;;;;;4.97;0.90;;;10.70;53.60;;;;;;5094286;28;20032;-68
2021/04/13 10:55:30;;;;;;;4.35;0.73;;;10.50;57.00;;;;;;5087203;28;20032;-69
2021/04/13 10:58:35;;;;;;;5.35;0.88;;;10.10;58.00;;;;;;5084803;28;20381;-69
2021/04/13 11:01:29;;;;;;;4.40;1.00;;;9.80;58.50;;;;;;5069491;28;20428;-69
2021/04/13 11:03:57;;;;;;;6.32;1.08;;;9.50;58.50;;;;;;5083850;28;20294;-69
2021/04/13 11:06:54;;;;;;;2.88;0.80;;;9.20;56.30;;;;;;5089840;28;20052;-69
2021/04/13 11:09:57;;;;;;;4.45;0.90;;;9.30;62.10;;;;;;5069626;28;20166;-69
2021/04/13 11:12:43;;;;;;;3.80;0.90;;;9.80;60.10;;;;;;5072588;28;20048;-68
2021/04/13 11:15:51;;;;;;;4.45;0.70;;;10.30;57.00;;;;;;5097841;28;20063;-68
2021/04/13 11:18:34;;;;;;;4.22;0.80;;;10.60;54.40;;;;;;5089009;28;20086;-69
2021/04/13 11:21:43;;;;;;;5.15;1.08;;;10.80;51.80;;;;;;5066093;28;20082;-69
2021/04/13 11:24:12;;;;;;;3.45;0.80;;;10.80;54.20;;;;;;5028454;28;20045;-69
2021/04/13 11:26:52;;;;;;;3.85;0.90;;;10.20;52.80;;;;;;5024531;28;20046;-68
2021/04/13 11:29:54;;;;;;;2.65;0.55;;;9.60;53.50;;;;;;5066792;28;20509;-68
2021/04/13 11:32:32;;;;;;;2.13;0.70;;;9.50;58.00;;;;;;5086979;28;20044;-67
2021/04/13 11:35:21;;;;;;;1.90;0.60;;;9.70;54.00;;;;;;5088004;28;20044;-67
2021/04/13 11:38:26;;;;;;;3.10;0.60;;;9.70;52.90;;;;;;5087885;28;20036;-67
2021/04/13 11:41:10;;;;;;;4.18;0.60;;;9.80;53.30;;;;;;5083218;28;20043;-67
2021/04/13 11:43:55;;;;;;;3.00;0.73;;;10.00;57.30;;;;;;5076063;28;20024;-67
2021/04/13 11:46:39;;;;;;;2.40;0.82;;;10.30;55.90;;;;;;5080368;28;20047;-67
2021/04/13 11:49:18;;;;;;;2.20;0.60;;;10.20;54.90;;;;;;5087697;28;20393;-66
2021/04/13 11:52:03;;;;;;;3.30;0.63;;;10.20;54.20;;;;;;5077630;28;20028;-67
2021/04/13 11:54:52;;;;;;;3.83;0.77;;;10.20;54.70;;;;;;5070644;28;20407;-67
2021/04/13 11:57:22;;;;;;;4.75;0.82;;;9.90;53.90;;;;;;5076284;28;20036;-67
2021/04/13 12:00:09;;;;;;;5.70;0.73;;;9.90;58.70;;;;;;5085548;28;20044;-67
2021/04/13 12:02:43;;;;;;;3.72;0.70;;;9.70;53.30;;;;;;5089034;28;20032;-67
2021/04/13 12:05:31;;;;;;;1.80;0.63;;;9.60;54.40;;;;;;5086509;28;20068;-67
2021/04/13 12:07:58;;;;;;;2.83;0.82;;;9.60;54.80;;;;;;5080418;28;20450;-66
2021/04/13 12:10:31;;;;;;;1.85;0.60;;;9.70;54.30;;;;;;5061315;28;20509;-67
2021/04/13 12:13:03;;;;;;;3.70;0.93;;;9.90;52.80;;;;;;5091792;28;20039;-67
2021/04/13 12:15:31;;;;;;;;;;;10.00;54.20;;;;;;5088588;28;20036;-67
2021/04/13 12:18:02;;;;;;;4.25;1.05;;;10.30;54.00;;;;;;5087102;28;20283;-66
2021/04/13 12:20:29;;;;;;;2.38;0.60;;;9.90;50.50;;;;;;5086386;28;20040;-67
2021/04/13 12:22:55;;;;;;;4.88;1.00;;;9.70;52.40;;;;;;5084914;28;20068;-67
2021/04/13 12:25:51;;;;;;;2.85;0.77;;;9.70;51.70;;;;;;5061027;28;20036;-66
2021/04/13 12:28:40;;;;;;;2.55;0.70;;;9.70;51.30;;;;;;5086457;28;20039;-67
2021/04/13 12:31:15;;;;;;;6.07;0.90;;;9.80;52.80;;;;;;5086799;28;20721;-66
2021/04/13 12:33:54;;;;;;;3.67;0.80;;;9.50;52.60;;;;;;5083030;28;20119;-68
2021/04/13 12:37:05;;;;;;;5.03;0.80;;;9.60;54.10;;;;;;5089123;28;20051;-68
2021/04/13 12:39:48;;;;;;;1.33;0.60;;;9.60;54.00;;;;;;5081946;28;20040;-68
2021/04/13 12:42:51;;;;;;;1.52;0.50;;;9.40;51.40;;;;;;5085737;28;20066;-69
2021/04/13 12:45:22;;;;;;;;;;;9.60;47.70;;;;;;5047806;28;20049;-68
2021/04/13 12:48:08;;;;;;;1.77;0.70;;;9.90;54.80;;;;;;5083625;28;19967;-68
2021/04/13 12:50:39;;;;;;;3.47;0.55;;;10.20;50.20;;;;;;5080412;28;20036;-68
2021/04/13 12:53:26;;;;;;;2.83;0.50;;;10.50;52.10;;;;;;5085488;28;20059;-68
2021/04/13 12:56:26;;;;;;;2.55;0.70;;;10.60;53.00;;;;;;5087463;28;20032;-68
2021/04/13 12:58:52;;;;;;;4.75;0.75;;;10.50;52.00;;;;;;5066864;28;20040;-68
2021/04/13 13:01:35;;;;;;;2.05;0.50;;;10.60;50.80;;;;;;5091126;28;20137;-68
2021/04/13 13:04:08;;;;;;;3.33;0.60;;;10.10;48.00;;;;;;5085078;28;20115;-68
2021/04/13 13:06:35;;;;;;;3.30;0.60;;;10.60;52.90;;;;;;5086361;28;20489;-68
2021/04/13 13:09:03;;;;;;;2.22;0.70;;;10.20;49.90;;;;;;5087994;28;20419;-68
2021/04/13 13:11:30;;;;;;;1.15;0.40;;;10.10;48.30;;;;;;5086954;28;20110;-68
2021/04/13 13:13:56;;;;;;;3.78;0.95;;;10.30;48.70;;;;;;5082745;28;20044;-68
2021/04/13 13:16:25;;;;;;;2.63;0.50;;;10.40;51.20;;;;;;5068367;28;20040;-68
2021/04/13 13:18:53;;;;;;;2.95;0.60;;;10.50;53.70;;;;;;5085792;28;20316;-68
2021/04/13 13:21:46;;;;;;;3.13;0.70;;;10.60;52.90;;;;;;5088199;28;20032;-68
2021/04/13 13:24:23;;;;;;;2.72;0.60;;;10.70;49.00;;;;;;5086134;28;20265;-68
2021/04/13 13:26:49;;;;;;;2.08;0.60;;;10.70;46.90;;;;;;5069569;28;20042;-68
2021/04/13 13:29:14;;;;;;;5.38;0.70;;;10.60;48.90;;;;;;5088473;28;20036;-68
2021/04/13 13:31:40;;;;;;;2.75;0.73;;;10.80;51.60;;;;;;5088650;28;20123;-68
2021/04/13 13:34:23;;;;;;;3.38;0.80;;;11.00;52.60;;;;;;5088403;28;20047;-69
2021/04/13 13:36:51;;;;;;;2.67;0.70;;;10.70;52.30;;;;;;5085047;28;20028;-70
2021/04/13 13:39:28;;;;;;;2.53;0.60;;;10.70;53.40;;;;;;5087453;28;20043;-70
2021/04/13 13:42:18;;;;;;;0.93;0.40;;;10.50;52.90;;;;;;5088869;28;20036;-70
2021/04/13 13:44:54;;;;;;;1.83;0.70;;;10.20;54.70;;;;;;5085566;28;20123;-70
2021/04/13 13:47:32;;;;;;;1.10;0.52;;;9.70;53.90;;;;;;5070600;28;20076;-70